Thursday, September 20, 2018, 10:20 PM GMT
Back to Local

CWRN, Hart Island Meteorological Aeronautical Presentation System

Location: , , Canada Lat: 45.35
Local Time: 10:20 PM GMT (22:20 GMT) Lon: -60.983
Time Zone: GMT Elev: 13 ft

Show me the last for .
Show Coded

Time T Td Feel RH Dir Speed Gust Alt SLP Vis Weather Sky Remarks
2018-09-20 22:00 55 40 - 56 30° 8 - - 30.21 0 None
2018-09-20 21:00 57 41 - 54 10° 12 - - 30.20 0 None
2018-09-20 20:00 57 38 - 49 30° 9 - - 30.19 0 None
2018-09-20 19:00 58 40 - 51 10° 13 - - 30.20 0 Peak wind: 19 mph (17 kts) from 350° at 01 min
2018-09-20 18:00 59 41 - 51 360° 14 - - 30.19 0 None
2018-09-20 17:00 58 43 - 57 30° 8 - - 30.20 0 None
2018-09-20 16:00 56 42 - 57 40° 10 - - 30.20 0 None
2018-09-20 15:00 57 43 - 58 50° 13 18 - 30.20 0 Peak wind: 21 mph (19 kts) from 30° at 07 min
2018-09-20 14:00 56 43 - 60 40° 16 24 - 30.20 0 Peak wind: 28 mph (25 kts) from 30° at 26 min
2018-09-20 13:00 55 41 - 60 40° 18 29 - 30.18 0 Peak wind: 28 mph (25 kts) from 30° at 50 min
2018-09-20 12:00 55 42 - 60 50° 17 25 - 30.16 0 Peak wind: 27 mph (24 kts) from 40° at 21 min
2018-09-20 11:00 54 40 - 59 40° 18 24 - 30.15 0 Peak wind: 25 mph (22 kts) from 30° at 47 min
2018-09-20 10:00 54 44 - 69 40° 18 24 - 30.13 0 Peak wind: 24 mph (21 kts) from 30° at 07 min
2018-09-20 09:00 53 45 - 75 30° 17 23 - 30.12 0 Peak wind: 25 mph (22 kts) from 50° at 03 min
2018-09-20 08:00 54 48 - 79 40° 18 24 - 30.10 0 Peak wind: 26 mph (23 kts) from 30° at 27 min
2018-09-20 07:00 54 48 - 79 40° 20 26 - 30.09 0 Peak wind: 27 mph (24 kts) from 30° at 09 min
2018-09-20 06:00 54 49 - 84 30° 20 26 - 30.09 0 Peak wind: 28 mph (25 kts) from 30° at 40 min
2018-09-20 05:00 54 49 - 84 40° 20 28 - 30.08 0 Peak wind: 27 mph (24 kts) from 40° at 58 min
2018-09-20 04:00 53 49 - 85 40° 22 - - 30.08 0 Peak wind: 26 mph (23 kts) from 40° at 47 min
2018-09-20 03:00 54 50 - 86 40° 21 26 - 30.08 0 Peak wind: 27 mph (24 kts) from 30° at 31 min
2018-09-20 02:00 54 50 - 86 30° 21 29 - 30.08 0 Peak wind: 28 mph (25 kts) from 30° at 06 min
2018-09-20 01:00 53 49 - 85 30° 21 26 - 30.08 0 Peak wind: 31 mph (27 kts) from 30° at 33 min
2018-09-20 00:00 54 49 - 85 30° 24 - - 30.06 0 Peak wind: 32 mph (28 kts) from 30° at 07 min
2018-09-19 23:00 54 50 - 86 30° 22 30 - 30.04 0 Peak wind: 29 mph (26 kts) from 30° at 53 min

Support USWX by starting your Amazon purchase here.